Time;durP1;ratioP1;P1;durP2;ratioP2;P2;SDS_P1;SDS_P2;PMS_P1;PMS_P2;Temp;Humidity;BMP_temperature;BMP_pressure;BME280_temperature;BME280_humidity;BME280_pressure;Samples;Min_cycle;Max_cycle;Signal;HPM_P1;HPM_P2
2021/05/28 00:00:09;;;;;;;6.00;4.83;;;;;;;23.88;71.84;99627.78;1759557;81;21057;-61
2021/05/28 00:02:36;;;;;;;5.22;4.62;;;;;;;23.86;71.93;99631.30;1758502;81;21102;-62
2021/05/28 00:05:04;;;;;;;6.33;5.25;;;;;;;23.84;72.04;99628.03;1756486;81;21148;-61
2021/05/28 00:07:31;;;;;;;4.87;4.47;;;;;;;23.82;72.07;99623.95;1752442;81;21098;-60
2021/05/28 00:09:58;;;;;;;5.42;4.28;;;;;;;23.84;72.11;99623.96;1759153;81;21039;-61
2021/05/28 00:12:25;;;;;;;5.97;4.37;;;;;;;23.91;71.76;99630.00;1758916;80;21610;-62
2021/05/28 00:14:52;;;;;;;5.92;4.62;;;;;;;23.89;71.75;99628.08;1756683;81;21059;-60
2021/05/28 00:17:18;;;;;;;5.75;5.22;;;;;;;23.87;71.82;99623.97;1759362;81;22139;-61
2021/05/28 00:19:46;;;;;;;5.22;4.30;;;;;;;23.84;71.91;99621.25;1759034;81;21070;-60
2021/05/28 00:22:13;;;;;;;5.20;4.70;;;;;;;23.81;71.93;99616.33;1769698;79;21072;-61
2021/05/28 00:24:40;;;;;;;5.37;4.87;;;;;;;23.80;72.11;99617.94;1783271;78;21052;-62
2021/05/28 00:27:06;;;;;;;5.33;4.83;;;;;;;23.78;72.10;99622.77;1801493;78;22116;-62
2021/05/28 00:29:34;;;;;;;6.62;5.08;;;;;;;23.74;72.16;99611.09;1791042;79;21099;-61
2021/05/28 00:32:02;;;;;;;4.87;4.47;;;;;;;23.73;72.37;99617.59;1804382;78;21709;-61
2021/05/28 00:34:29;;;;;;;5.12;4.62;;;;;;;23.75;72.41;99617.34;1803803;79;21159;-62
2021/05/28 00:36:55;;;;;;;4.78;4.37;;;;;;;23.81;71.98;99612.26;1806121;78;21067;-61
2021/05/28 00:39:23;;;;;;;5.10;4.60;;;;;;;23.79;72.01;99610.89;1803290;79;21127;-61
2021/05/28 00:41:50;;;;;;;5.60;4.90;;;;;;;23.77;72.17;99609.76;1792851;79;21099;-61
2021/05/28 00:44:28;;;;;;;4.90;4.50;;;;;;;23.74;72.19;99602.16;1794090;78;21057;-63
2021/05/28 00:46:55;;;;;;;6.03;4.58;;;;;;;23.71;72.19;99596.69;1799121;79;21075;-61
2021/05/28 00:49:22;;;;;;;5.65;4.80;;;;;;;23.68;72.25;99594.51;1806089;79;21083;-61
2021/05/28 00:51:50;;;;;;;5.65;4.80;;;;;;;23.67;72.21;99596.93;1797331;79;21040;-61
2021/05/28 00:54:17;;;;;;;4.65;3.98;;;;;;;23.64;72.25;99597.46;1787731;79;21078;-61
2021/05/28 00:56:45;;;;;;;5.35;4.50;;;;;;;23.69;72.30;99593.42;1788995;79;21068;-61
2021/05/28 00:59:11;;;;;;;4.37;3.98;;;;;;;23.76;72.02;99589.16;1793885;79;21110;-61
2021/05/28 01:01:38;;;;;;;5.60;4.33;;;;;;;23.74;71.99;99589.41;1808223;79;21043;-61
2021/05/28 01:04:06;;;;;;;5.40;4.92;;;;;;;23.70;72.14;99588.29;1800986;78;21575;-61
2021/05/28 01:06:33;;;;;;;5.17;4.67;;;;;;;23.69;72.21;99589.34;1799772;79;21119;-61
2021/05/28 01:09:03;;;;;;;5.30;4.80;;;;;;;23.67;72.13;99583.91;1801098;79;22171;-61
2021/05/28 01:11:30;;;;;;;5.42;4.53;;;;;;;23.65;72.19;99584.71;1719878;82;21080;-60
2021/05/28 01:13:59;;;;;;;5.03;4.62;;;;;;;23.63;72.20;99584.16;1743990;81;21107;-62
2021/05/28 01:16:25;;;;;;;5.58;5.17;;;;;;;23.61;72.33;99583.59;1755345;81;21111;-62
2021/05/28 01:18:53;;;;;;;4.78;4.37;;;;;;;23.59;72.32;99587.11;1740939;81;21164;-61
2021/05/28 01:21:21;;;;;;;4.97;4.58;;;;;;;23.62;72.37;99583.86;1745850;81;21092;-61
2021/05/28 01:23:48;;;;;;;4.60;4.20;;;;;;;23.69;72.13;99593.42;1737166;81;21131;-62
2021/05/28 01:26:14;;;;;;;4.78;4.20;;;;;;;23.68;72.21;99593.67;1785228;79;21032;-60
2021/05/28 01:28:41;;;;;;;6.08;4.42;;;;;;;23.65;72.13;99594.20;1791818;78;21031;-60
2021/05/28 01:31:09;;;;;;;4.67;3.98;;;;;;;23.62;72.22;99591.45;1800449;78;21072;-62
2021/05/28 01:33:41;;;;;;;4.67;4.28;;;;;;;23.61;72.24;99586.31;1789289;79;21662;-61
2021/05/28 01:36:09;;;;;;;4.62;4.22;;;;;;;23.59;72.32;99585.75;1796178;78;21286;-62
2021/05/28 01:38:36;;;;;;;5.33;4.87;;;;;;;23.57;72.26;99587.36;1803474;79;21084;-62
2021/05/28 01:41:02;;;;;;;5.20;4.80;;;;;;;23.55;72.36;99586.80;1802377;79;21068;-60
2021/05/28 01:43:30;;;;;;;4.42;4.12;;;;;;;23.52;72.40;99582.69;1804983;78;21039;-61
2021/05/28 01:45:57;;;;;;;4.60;4.20;;;;;;;23.55;72.33;99578.66;1798125;79;21055;-60
2021/05/28 01:48:24;;;;;;;4.55;4.15;;;;;;;23.63;72.10;99580.90;1800109;79;21044;-60
2021/05/28 01:50:52;;;;;;;5.03;4.62;;;;;;;23.61;71.95;99589.02;1799747;79;21043;-61
2021/05/28 01:53:22;;;;;;;4.90;4.50;;;;;;;23.59;72.06;99588.46;1808484;79;21634;-61
2021/05/28 01:55:49;;;;;;;6.53;4.87;;;;;;;23.57;72.13;99590.61;1801313;79;21095;-61
2021/05/28 01:58:19;;;;;;;5.83;5.12;;;;;;;23.53;72.21;99585.70;1803662;79;21044;-61
2021/05/28 02:00:47;;;;;;;5.10;4.53;;;;;;;23.52;72.10;99584.59;1793870;79;21033;-61
2021/05/28 02:03:18;;;;;;;4.65;4.25;;;;;;;23.49;72.17;99585.12;1777931;79;21210;-61
2021/05/28 02:05:46;;;;;;;5.70;4.37;;;;;;;23.47;72.15;99592.16;1800284;78;21059;-61
2021/05/28 02:08:14;;;;;;;4.08;3.67;;;;;;;23.46;72.31;99596.47;1796425;79;22183;-61
2021/05/28 02:10:41;;;;;;;4.60;3.95;;;;;;;23.48;72.41;99597.03;1799055;78;21173;-61
2021/05/28 02:13:08;;;;;;;4.67;4.28;;;;;;;23.55;72.04;99588.16;1792193;79;21039;-61
2021/05/28 02:15:35;;;;;;;4.03;3.65;;;;;;;23.53;71.97;99593.02;1787753;79;21051;-63
2021/05/28 02:18:01;;;;;;;4.75;4.30;;;;;;;23.51;72.12;99600.59;1791404;79;21507;-62
2021/05/28 02:20:29;;;;;;;4.12;3.72;;;;;;;23.50;72.13;99597.59;1792848;79;21024;-62
2021/05/28 02:22:55;;;;;;;5.97;5.37;;;;;;;23.48;72.10;99595.67;1805337;79;21047;-61
2021/05/28 02:25:22;;;;;;;5.42;4.58;;;;;;;23.46;72.00;99597.83;1800236;79;21064;-61
2021/05/28 02:27:49;;;;;;;5.25;4.75;;;;;;;23.44;71.99;99594.55;1802128;79;21083;-62
2021/05/28 02:30:18;;;;;;;4.62;4.22;;;;;;;23.42;71.95;99592.64;1793071;79;21138;-60
2021/05/28 02:32:44;;;;;;;5.42;3.95;;;;;;;23.40;72.12;99588.82;1791193;79;21062;-62
2021/05/28 02:35:12;;;;;;;5.53;4.00;;;;;;;23.43;72.07;99589.67;1791357;79;21048;-61
2021/05/28 02:37:39;;;;;;;4.58;4.17;;;;;;;23.51;71.81;99591.10;1809619;79;21071;-63
2021/05/28 02:40:06;;;;;;;4.60;4.20;;;;;;;23.49;71.67;99585.12;1802865;79;21607;-62
2021/05/28 02:42:35;;;;;;;4.42;4.03;;;;;;;23.46;71.64;99582.37;1800372;79;21043;-61
2021/05/28 02:45:04;;;;;;;4.90;4.05;;;;;;;23.45;71.63;99576.68;1806210;78;21831;-63
2021/05/28 02:47:31;;;;;;;4.45;3.72;;;;;;;23.43;71.65;99574.77;1801056;78;21056;-62
2021/05/28 02:49:57;;;;;;;4.03;3.55;;;;;;;23.41;71.62;99570.14;1728739;82;21068;-62
2021/05/28 02:52:23;;;;;;;3.87;3.58;;;;;;;23.40;71.65;99570.39;1753542;81;21602;-61
2021/05/28 02:54:50;;;;;;;3.90;3.60;;;;;;;23.37;71.58;99566.28;1751827;81;21095;-62
2021/05/28 02:57:17;;;;;;;4.55;3.92;;;;;;;23.36;71.55;99566.02;1733840;82;21094;-61
2021/05/28 02:59:45;;;;;;;3.77;3.47;;;;;;;23.33;71.61;99561.94;1806901;79;21066;-60
2021/05/28 03:02:11;;;;;;;4.35;3.95;;;;;;;;;;1798288;79;21045;-60
2021/05/28 03:04:38;;;;;;;4.17;3.77;;;;;;;23.47;71.23;99569.63;1791368;78;21103;-62
2021/05/28 03:07:04;;;;;;;3.65;3.35;;;;;;;23.45;71.19;99568.55;1806587;79;21208;-61
2021/05/28 03:09:31;;;;;;;3.62;3.33;;;;;;;23.43;71.23;99565.80;1716913;81;21652;-60
2021/05/28 03:11:58;;;;;;;3.75;3.50;;;;;;;23.42;71.37;99569.59;1751429;81;21146;-61
2021/05/28 03:14:25;;;;;;;4.03;3.72;;;;;;;23.41;71.29;99572.85;1734897;81;21555;-61
2021/05/28 03:16:52;;;;;;;3.85;3.55;;;;;;;23.40;71.26;99567.69;1766393;81;21035;-61
2021/05/28 03:19:26;;;;;;;4.12;3.72;;;;;;;23.40;71.33;99566.33;1755492;81;21059;-61
2021/05/28 03:24:27;;;;;;;4.75;3.60;;;;;;;23.35;71.38;99564.37;1678531;82;21079;-61
2021/05/28 03:26:53;;;;;;;3.40;3.10;;;;;;;23.34;71.44;99562.20;1732229;82;21120;-62
2021/05/28 03:29:20;;;;;;;3.70;3.40;;;;;;;23.39;71.62;99570.09;1731807;82;21166;-61
2021/05/28 03:31:46;;;;;;;3.87;3.58;;;;;;;23.48;71.41;99565.85;1730787;82;22078;-61
2021/05/28 03:34:13;;;;;;;4.08;3.67;;;;;;;23.47;71.32;99568.27;1693800;82;21224;-61
2021/05/28 03:36:40;;;;;;;4.33;3.90;;;;;;;23.45;71.42;99564.48;1729714;81;21095;-61
2021/05/28 03:39:07;;;;;;;4.22;3.58;;;;;;;23.45;71.34;99566.35;1726857;82;21586;-60
2021/05/28 03:41:33;;;;;;;3.98;3.60;;;;;;;23.44;71.36;99571.51;1725993;82;21095;-61
2021/05/28 03:43:59;;;;;;;3.80;3.50;;;;;;;23.42;71.40;99566.34;1726032;82;21147;-62
2021/05/28 03:46:26;;;;;;;4.08;3.67;;;;;;;23.42;71.51;99565.53;1731207;82;21108;-62
2021/05/28 03:48:53;;;;;;;4.50;3.30;;;;;;;23.42;71.57;99570.95;1719825;82;21082;-62
2021/05/28 03:51:20;;;;;;;4.22;3.92;;;;;;;23.41;71.65;99572.02;1728170;82;21131;-60
2021/05/28 03:53:48;;;;;;;3.55;3.25;;;;;;;23.45;71.67;99573.97;1730849;82;21582;-61
2021/05/28 03:56:16;;;;;;;3.92;3.58;;;;;;;23.54;71.34;99572.41;1719531;82;21079;-61
2021/05/28 03:58:43;;;;;;;3.72;3.17;;;;;;;23.56;71.35;99580.28;1731752;81;21499;-63
2021/05/28 04:01:10;;;;;;;3.72;3.42;;;;;;;23.54;71.36;99583.80;1728988;82;21024;-61
2021/05/28 04:03:37;;;;;;;4.08;3.47;;;;;;;23.54;71.43;99581.89;1728059;82;21591;-62
2021/05/28 04:06:04;;;;;;;3.95;3.55;;;;;;;23.54;71.46;99582.44;1723217;82;21562;-60
2021/05/28 04:08:30;;;;;;;4.00;3.60;;;;;;;23.53;71.50;99583.53;1758173;81;21581;-61
2021/05/28 04:10:58;;;;;;;5.12;3.62;;;;;;;23.53;71.51;99581.63;1761219;81;21139;-60
2021/05/28 04:13:31;;;;;;;4.30;3.50;;;;;;;23.54;71.46;99583.80;1757107;81;21087;-65
2021/05/28 04:15:59;;;;;;;3.40;3.10;;;;;;;23.53;71.53;99584.89;1755366;81;21622;-61
2021/05/28 04:18:25;;;;;;;3.72;3.42;;;;;;;23.58;71.50;99584.91;1766726;81;21111;-62
2021/05/28 04:20:52;;;;;;;3.50;3.20;;;;;;;23.68;71.29;99588.25;1761594;80;21048;-62
2021/05/28 04:23:19;;;;;;;4.40;3.75;;;;;;;23.66;71.26;99583.11;1768937;79;21382;-61
2021/05/28 04:25:48;;;;;;;3.95;3.65;;;;;;;23.64;71.25;99586.61;1742844;81;21103;-60
2021/05/28 04:28:15;;;;;;;3.70;3.40;;;;;;;23.65;71.21;99588.78;1735967;81;21071;-61
2021/05/28 04:30:41;;;;;;;4.35;3.55;;;;;;;23.65;71.28;99584.71;1729845;81;21574;-61
2021/05/28 04:33:08;;;;;;;4.45;3.40;;;;;;;23.65;71.31;99581.45;1730563;81;21042;-61
2021/05/28 04:35:34;;;;;;;3.90;3.60;;;;;;;23.64;71.30;99579.84;1739978;81;21067;-61
2021/05/28 04:38:01;;;;;;;3.92;3.60;;;;;;;23.65;71.40;99581.45;1750928;81;21676;-61
2021/05/28 04:40:29;;;;;;;4.03;3.62;;;;;;;23.64;71.50;99580.35;1734006;81;21065;-61
2021/05/28 04:42:55;;;;;;;3.65;3.35;;;;;;;23.63;71.58;99583.61;1731822;81;21150;-60
2021/05/28 04:45:23;;;;;;;4.08;3.02;;;;;;;23.68;71.60;99582.82;1736498;81;21026;-62
2021/05/28 04:47:49;;;;;;;3.55;3.25;;;;;;;23.79;71.39;99582.41;1731226;81;21113;-63
2021/05/28 04:50:15;;;;;;;3.45;3.15;;;;;;;23.79;71.43;99575.09;1731353;81;21089;-62
2021/05/28 04:52:45;;;;;;;3.80;3.50;;;;;;;23.79;71.51;99574.27;1744585;81;21051;-62
2021/05/28 04:55:13;;;;;;;4.50;4.10;;;;;;;23.78;71.44;99581.61;1713420;81;21185;-61
2021/05/28 04:57:40;;;;;;;3.47;3.20;;;;;;;23.79;71.58;99581.05;1726021;81;21597;-62
2021/05/28 05:00:08;;;;;;;5.00;4.03;;;;;;;23.79;71.54;99577.80;1727798;81;21127;-62
2021/05/28 05:02:35;;;;;;;4.17;3.87;;;;;;;23.80;71.49;99577.25;1725335;81;21162;-61
2021/05/28 05:05:02;;;;;;;4.30;3.90;;;;;;;23.80;71.43;99571.83;1728140;81;21135;-62
2021/05/28 05:07:28;;;;;;;4.55;4.17;;;;;;;23.81;71.40;99572.93;1728126;81;22187;-62
2021/05/28 05:09:55;;;;;;;4.67;4.22;;;;;;;23.83;71.35;99574.84;1729558;81;21587;-61
2021/05/28 05:12:22;;;;;;;4.62;3.52;;;;;;;23.83;71.29;99581.63;1734945;81;21176;-62
2021/05/28 05:14:48;;;;;;;4.40;4.00;;;;;;;23.89;71.26;99581.97;1729927;81;21119;-62
2021/05/28 05:17:16;;;;;;;4.30;3.98;;;;;;;23.99;70.95;99580.38;1733340;81;21107;-63
2021/05/28 05:19:43;;;;;;;4.53;4.12;;;;;;;24.00;70.88;99581.48;1727836;81;21622;-62
2021/05/28 05:22:10;;;;;;;4.90;4.20;;;;;;;24.00;70.92;99582.84;1721824;81;21051;-62
2021/05/28 05:24:36;;;;;;;4.40;4.10;;;;;;;24.01;70.90;99582.30;1762359;80;21059;-60
2021/05/28 05:27:03;;;;;;;4.45;4.15;;;;;;;24.01;70.93;99583.65;1795608;79;21097;-63
2021/05/28 05:29:31;;;;;;;5.05;3.80;;;;;;;24.02;70.87;99588.82;1794266;79;21136;-62
2021/05/28 05:31:57;;;;;;;4.85;4.45;;;;;;;24.02;70.84;99586.66;1788332;79;21587;-62
2021/05/28 05:34:24;;;;;;;4.30;4.00;;;;;;;24.03;70.82;99589.11;1795350;79;21033;-61
2021/05/28 05:36:50;;;;;;;4.60;4.20;;;;;;;24.02;70.84;99591.53;1787287;79;21734;-62
2021/05/28 05:39:16;;;;;;;4.95;4.25;;;;;;;24.03;70.75;99587.76;1775063;79;21026;-62
2021/05/28 05:41:43;;;;;;;4.30;3.90;;;;;;;24.03;70.73;99593.19;1790653;79;21088;-63
2021/05/28 05:44:09;;;;;;;4.20;3.80;;;;;;;24.03;70.75;99589.11;1784560;79;21061;-62
2021/05/28 05:46:35;;;;;;;4.92;3.80;;;;;;;24.09;70.71;99593.49;1783217;79;21024;-62
2021/05/28 05:49:03;;;;;;;4.55;3.50;;;;;;;24.19;70.36;99590.58;1791371;79;21074;-62
2021/05/28 05:51:29;;;;;;;4.50;4.10;;;;;;;24.19;70.23;99587.86;1783831;79;21103;-62
2021/05/28 05:53:55;;;;;;;3.90;3.60;;;;;;;24.20;70.24;99586.77;1782886;79;21056;-61
2021/05/28 05:56:22;;;;;;;4.22;3.83;;;;;;;24.19;70.34;99587.31;1794377;79;21650;-61
2021/05/28 05:58:49;;;;;;;3.67;3.37;;;;;;;24.19;70.24;99594.09;1792498;79;21061;-61
2021/05/28 06:01:15;;;;;;;4.53;3.60;;;;;;;24.21;70.19;99587.06;1785846;79;21123;-61
2021/05/28 06:03:41;;;;;;;4.72;3.87;;;;;;;24.21;70.13;99586.52;1778669;79;21619;-62
2021/05/28 06:06:08;;;;;;;3.65;3.35;;;;;;;24.22;70.07;99594.11;1789168;79;21037;-62
2021/05/28 06:08:35;;;;;;;4.00;3.70;;;;;;;24.23;70.04;99587.61;1782152;79;21119;-62
2021/05/28 06:11:01;;;;;;;4.28;3.87;;;;;;;24.25;70.05;99586.81;1792687;79;21128;-62
2021/05/28 06:13:29;;;;;;;3.98;3.67;;;;;;;24.26;70.03;99587.07;1794311;79;21646;-62
2021/05/28 06:15:57;;;;;;;4.00;3.67;;;;;;;24.27;70.00;99585.45;1789328;79;21080;-61
2021/05/28 06:18:23;;;;;;;3.95;3.62;;;;;;;24.26;69.99;99581.13;1792358;79;21644;-61
2021/05/28 06:20:50;;;;;;;4.12;3.50;;;;;;;24.32;69.98;99584.69;1790313;79;21135;-61
2021/05/28 06:23:16;;;;;;;4.55;4.15;;;;;;;24.42;69.56;99584.73;1797516;79;21048;-62
2021/05/28 06:25:45;;;;;;;4.72;4.20;;;;;;;24.44;69.47;99584.48;1787325;79;21618;-61
2021/05/28 06:28:13;;;;;;;4.25;3.85;;;;;;;24.43;69.35;99586.91;1797473;79;21076;-62
2021/05/28 06:30:39;;;;;;;4.42;3.80;;;;;;;24.44;69.59;99586.64;1806037;79;21079;-62
2021/05/28 06:33:06;;;;;;;4.72;4.33;;;;;;;24.43;69.56;99589.06;1789736;79;21594;-63
2021/05/28 06:35:33;;;;;;;4.80;4.33;;;;;;;24.43;69.21;99586.35;1796449;79;21063;-62
2021/05/28 06:38:00;;;;;;;4.80;4.30;;;;;;;24.44;69.03;99588.55;1799544;79;21103;-61
2021/05/28 06:40:27;;;;;;;5.83;4.92;;;;;;;24.43;68.85;99590.42;1794944;79;21139;-62
2021/05/28 06:42:53;;;;;;;6.58;4.72;;;;;;;24.43;68.81;99588.26;1803286;79;21075;-64
2021/05/28 06:45:20;;;;;;;6.08;5.53;;;;;;;24.42;68.74;99584.73;1793555;79;21130;-63
2021/05/28 06:47:47;;;;;;;5.45;4.95;;;;;;;24.42;68.68;99583.38;1799739;79;21056;-63
2021/05/28 06:50:17;;;;;;;5.78;5.15;;;;;;;24.43;68.70;99578.76;1807283;79;21076;-63
2021/05/28 06:52:44;;;;;;;5.42;4.92;;;;;;;24.42;68.70;99585.28;1791247;79;22128;-63
2021/05/28 06:55:11;;;;;;;6.00;5.25;;;;;;;24.41;68.56;99584.44;1794620;79;21087;-63
2021/05/28 06:57:38;;;;;;;6.45;5.55;;;;;;;24.42;68.58;99584.73;1789577;79;21102;-64
2021/05/28 07:00:07;;;;;;;6.40;5.20;;;;;;;24.42;68.64;99582.56;1805818;79;21004;-64
2021/05/28 07:02:35;;;;;;;6.42;5.42;;;;;;;24.42;68.53;99583.38;1784888;79;21100;-63
2021/05/28 07:05:04;;;;;;;6.42;5.17;;;;;;;24.41;68.43;99587.16;1787225;79;21051;-63
2021/05/28 07:07:30;;;;;;;5.50;5.00;;;;;;;24.47;68.34;99583.41;1803962;79;21131;-64
2021/05/28 07:09:56;;;;;;;6.10;5.47;;;;;;;24.56;68.00;99578.86;1800357;79;21075;-63
2021/05/28 07:12:22;;;;;;;6.03;5.45;;;;;;;24.57;67.89;99576.41;1789382;79;21567;-63
2021/05/28 07:14:50;;;;;;;6.30;5.62;;;;;;;24.56;67.96;99574.79;1791692;79;21088;-63
2021/05/28 07:17:17;;;;;;;6.70;6.03;;;;;;;24.56;67.95;99580.22;1795262;79;21055;-63
2021/05/28 07:19:43;;;;;;;6.50;5.30;;;;;;;24.56;67.95;99578.31;1790231;79;21052;-63
2021/05/28 07:22:09;;;;;;;6.53;5.45;;;;;;;24.56;67.77;99580.22;1790386;79;21032;-63
2021/05/28 07:24:36;;;;;;;7.08;5.62;;;;;;;24.56;67.64;99577.50;1791262;79;21119;-64
2021/05/28 07:27:03;;;;;;;7.78;4.95;;;;;;;24.56;67.89;99583.75;1800771;79;21092;-64
2021/05/28 07:29:30;;;;;;;7.42;5.30;;;;;;;24.57;67.95;99581.84;1739939;82;21377;-65
2021/05/28 07:31:56;;;;;;;6.92;6.22;;;;;;;24.55;67.90;99576.70;1740499;82;21092;-64
2021/05/28 07:34:23;;;;;;;8.63;6.10;;;;;;;24.62;67.58;99576.44;1760240;81;21574;-65
2021/05/28 07:36:49;;;;;;;8.23;6.42;;;;;;;24.64;67.44;99569.65;1755864;81;21072;-65
2021/05/28 07:39:19;;;;;;;9.15;6.80;;;;;;;24.67;67.27;99572.40;1753363;81;21119;-66
2021/05/28 07:41:45;;;;;;;9.00;6.10;;;;;;;24.69;66.72;99570.23;1758347;80;21110;-64
2021/05/28 07:44:11;;;;;;;8.83;6.83;;;;;;;24.72;66.64;99568.33;1745867;80;21110;-62
2021/05/28 07:46:44;;;;;;;12.13;6.53;;;;;;;24.73;66.32;99573.50;1757349;81;21606;-64
2021/05/28 07:49:13;;;;;;;10.23;7.33;;;;;;;24.75;65.99;99566.45;1743303;82;21160;-64
2021/05/28 07:51:41;;;;;;;8.10;7.20;;;;;;;24.79;65.62;99569.45;1746206;80;21178;-62
2021/05/28 07:54:08;;;;;;;6.80;5.87;;;;;;;24.81;65.49;99568.09;1770329;80;21040;-63
2021/05/28 07:56:34;;;;;;;7.85;5.87;;;;;;;24.83;65.29;99557.77;1799683;79;21095;-63
2021/05/28 07:59:01;;;;;;;10.63;7.25;;;;;;;24.86;65.15;99562.69;1803300;79;21607;-64
2021/05/28 08:01:28;;;;;;;7.40;6.70;;;;;;;24.89;64.77;99563.49;1729039;81;21068;-63
2021/05/28 08:03:56;;;;;;;7.83;7.12;;;;;;;24.92;64.56;99565.69;1802375;79;21668;-63
2021/05/28 08:06:24;;;;;;;8.23;6.72;;;;;;;24.96;64.39;99563.27;1804561;79;21044;-65
2021/05/28 08:08:50;;;;;;;6.72;5.95;;;;;;;25.00;64.22;99567.07;1799016;79;21110;-66
2021/05/28 08:11:17;;;;;;;11.57;8.33;;;;;;;25.04;64.15;99564.09;1790663;79;21116;-66
2021/05/28 08:13:44;;;;;;;18.40;12.85;;;;;;;25.08;64.31;99559.75;1795840;79;21085;-66
2021/05/28 08:16:10;;;;;;;20.35;14.07;;;;;;;25.12;64.66;99556.77;1794822;79;21916;-65
2021/05/28 08:18:38;;;;;;;18.10;12.55;;;;;;;25.17;64.75;99557.33;1793918;79;21189;-67
2021/05/28 08:21:05;;;;;;;18.52;12.00;;;;;;;25.22;64.96;99550.56;1791789;79;21055;-68
2021/05/28 08:23:32;;;;;;;16.57;10.68;;;;;;;25.24;65.00;99538.06;1786824;79;21634;-64
2021/05/28 08:25:58;;;;;;;14.65;10.20;;;;;;;25.33;64.90;99541.88;1759603;79;21044;-65
2021/05/28 08:28:25;;;;;;;15.95;10.03;;;;;;;25.39;64.73;99543.52;1794691;78;21041;-65
2021/05/28 08:30:51;;;;;;;10.58;9.45;;;;;;;25.44;64.48;99540.81;1795963;78;21121;-66
2021/05/28 08:33:18;;;;;;;10.43;9.33;;;;;;;25.50;64.24;99540.27;1801783;79;21103;-66
2021/05/28 08:35:44;;;;;;;10.43;9.23;;;;;;;25.54;63.95;99541.35;1797890;79;21126;-62
2021/05/28 08:38:11;;;;;;;11.35;8.80;;;;;;;25.59;63.74;99533.17;1801153;79;21052;-62
2021/05/28 08:40:38;;;;;;;13.38;9.53;;;;;;;25.63;63.60;99535.64;1805074;79;21091;-64
2021/05/28 08:43:06;;;;;;;9.85;8.83;;;;;;;25.68;63.37;99528.83;1802784;78;21083;-65
2021/05/28 08:45:38;;;;;;;12.05;8.88;;;;;;;25.71;63.33;99528.84;1805038;78;21087;-63
2021/05/28 08:48:09;;;;;;;11.53;9.08;;;;;;;25.76;64.02;99526.65;1801859;79;21032;-62
2021/05/28 08:50:36;;;;;;;11.90;9.35;;;;;;;25.81;64.25;99525.29;1807183;79;21264;-62
2021/05/28 08:53:04;;;;;;;12.07;9.45;;;;;;;25.85;63.75;99523.65;1796888;79;21780;-63
2021/05/28 08:55:31;;;;;;;12.75;8.93;;;;;;;25.89;63.46;99526.09;1794068;79;21124;-63
2021/05/28 08:57:58;;;;;;;9.40;8.48;;;;;;;25.93;63.41;99527.20;1722256;81;21120;-64
2021/05/28 09:00:28;;;;;;;13.03;8.73;;;;;;;25.92;63.32;99521.47;1753889;81;21135;-64
2021/05/28 09:02:54;;;;;;;12.90;9.28;;;;;;;26.00;63.29;99526.38;1754529;81;21111;-64
2021/05/28 09:05:23;;;;;;;9.35;8.43;;;;;;;26.04;63.25;99531.53;1735825;82;22205;-65
2021/05/28 09:07:59;;;;;;;10.45;9.10;;;;;;;26.06;63.19;99525.27;1788552;79;21558;-63
2021/05/28 09:10:41;;;;;;;9.60;8.70;;;;;;;26.09;63.02;99528.78;1792327;79;21551;-63
2021/05/28 09:13:22;;;;;;;9.90;9.05;;;;;;;26.12;62.96;99523.91;1804492;79;21555;-63
2021/05/28 09:15:52;;;;;;;9.23;8.40;;;;;;;26.15;62.84;99526.06;1803101;79;21040;-64
2021/05/28 09:18:18;;;;;;;8.95;8.13;;;;;;;26.16;62.75;99527.14;1798823;78;21101;-64
2021/05/28 09:20:48;;;;;;;9.70;8.80;;;;;;;26.20;62.66;99524.69;1805419;79;21531;-63
2021/05/28 09:23:17;;;;;;;9.78;8.78;;;;;;;26.23;62.50;99522.23;1803049;78;21094;-63
2021/05/28 09:26:01;;;;;;;10.30;9.03;;;;;;;26.26;62.52;99522.22;1811634;79;21122;-64
2021/05/28 09:28:28;;;;;;;10.23;9.33;;;;;;;26.29;62.39;99510.78;1807449;78;21516;-63
2021/05/28 09:31:01;;;;;;;10.25;9.28;;;;;;;26.31;62.44;99515.41;1812513;79;21089;-62
2021/05/28 09:33:33;;;;;;;10.63;9.58;;;;;;;26.33;62.18;99520.55;1801639;79;21168;-63
2021/05/28 09:39:15;;;;;;;11.15;9.40;;;;;;;26.40;62.37;99508.81;1864317;76;22600;-62
2021/05/28 09:41:57;;;;;;;14.70;13.30;;;;;;;26.38;62.20;99508.28;1838893;77;21582;-64
2021/05/28 09:44:29;;;;;;;17.25;15.63;;;;;;;26.39;62.18;99505.28;1831327;77;20979;-63
2021/05/28 09:47:15;;;;;;;16.48;14.83;;;;;;;26.40;61.23;99496.56;1843819;77;20991;-63
2021/05/28 09:49:47;;;;;;;18.32;16.62;;;;;;;26.38;61.76;99490.03;1853989;77;20984;-64
2021/05/28 09:52:24;;;;;;;15.30;13.95;;;;;;;26.38;60.50;99482.41;1851940;77;21605;-64
2021/05/28 09:54:58;;;;;;;15.20;13.70;;;;;;;26.40;61.33;99483.75;1839774;77;20967;-65
2021/05/28 09:57:45;;;;;;;18.02;16.35;;;;;;;26.42;60.62;99484.28;1842498;77;21061;-62
2021/05/28 10:00:34;;;;;;;17.42;15.48;;;;;;;26.46;60.48;99481.30;1849858;77;20991;-65
2021/05/28 10:03:23;;;;;;;16.40;14.93;;;;;;;26.49;59.45;99480.72;1843175;77;21059;-64
2021/05/28 10:05:57;;;;;;;17.10;15.75;;;;;;;26.49;59.20;99481.28;1845010;77;21561;-64
2021/05/28 10:08:26;;;;;;;19.17;17.27;;;;;;;26.49;58.44;99476.64;1848088;77;21740;-63
2021/05/28 10:10:55;;;;;;;17.60;16.00;;;;;;;26.48;57.73;99475.02;1851232;77;21127;-65
2021/05/28 10:13:25;;;;;;;17.23;15.83;;;;;;;26.48;57.12;99470.94;1853292;77;21095;-63
2021/05/28 10:15:53;;;;;;;17.23;15.50;;;;;;;26.49;56.65;99465.74;1845716;77;21664;-64
2021/05/28 10:18:22;;;;;;;16.48;14.95;;;;;;;26.53;55.98;99469.28;1852757;77;21054;-64
2021/05/28 10:20:53;;;;;;;15.75;14.35;;;;;;;26.55;56.19;99463.00;1785739;79;21015;-65
2021/05/28 10:23:20;;;;;;;16.80;15.27;;;;;;;26.57;56.33;99460.81;1819462;78;21122;-73
2021/05/28 10:25:47;;;;;;;14.53;13.22;;;;;;;26.61;56.72;99460.54;1763186;78;21120;-72
2021/05/28 10:28:20;;;;;;;15.80;14.35;;;;;;;26.66;58.08;99453.16;1805139;78;21047;-74
2021/05/28 10:30:48;;;;;;;17.02;15.53;;;;;;;26.73;58.42;99458.28;1818302;78;21051;-74
2021/05/28 10:33:27;;;;;;;15.83;14.35;;;;;;;26.78;56.83;99455.53;1799128;78;21594;-65
2021/05/28 10:36:01;;;;;;;16.45;15.05;;;;;;;26.85;56.55;99456.03;1797992;78;21077;-67
2021/05/28 10:38:41;;;;;;;16.77;15.18;;;;;;;26.93;58.05;99444.28;1804604;78;21055;-65
2021/05/28 10:41:19;;;;;;;15.45;13.90;;;;;;;27.01;58.04;99450.48;1843988;77;21064;-66
2021/05/28 10:43:54;;;;;;;16.37;14.87;;;;;;;27.07;57.17;99439.80;1841612;77;21134;-64
2021/05/28 10:46:21;;;;;;;17.32;15.63;;;;;;;27.14;55.86;99436.20;1836075;77;21086;-65
2021/05/28 10:49:06;;;;;;;17.27;15.48;;;;;;;27.20;56.77;99435.05;1837657;77;21085;-73
2021/05/28 10:51:38;;;;;;;16.45;14.45;;;;;;;27.24;56.35;99436.66;1846856;77;21515;-70
2021/05/28 10:54:20;;;;;;;17.45;15.30;;;;;;;27.30;56.41;99437.47;1831741;77;21559;-71
2021/05/28 10:56:47;;;;;;;18.55;16.85;;;;;;;27.33;56.53;99430.06;1795531;78;21130;-73
2021/05/28 10:59:19;;;;;;;17.37;15.63;;;;;;;27.38;56.35;99430.02;1836214;77;21527;-76
2021/05/28 11:01:56;;;;;;;16.42;14.83;;;;;;;27.43;56.63;99431.34;1841540;77;21134;-76
2021/05/28 11:04:41;;;;;;;17.62;15.88;;;;;;;27.45;56.66;99424.49;1832149;77;21678;-64
2021/05/28 11:07:14;;;;;;;16.48;14.95;;;;;;;27.47;55.46;99422.84;1843779;77;21030;-66
2021/05/28 11:09:48;;;;;;;16.52;14.93;;;;;;;27.51;55.11;99410.81;1837532;77;21530;-64
2021/05/28 11:12:38;;;;;;;16.48;14.58;;;;;;;27.55;55.60;99404.48;1838471;77;21018;-65
2021/05/28 11:15:18;;;;;;;15.70;14.30;;;;;;;27.62;55.70;99403.59;1826173;77;21105;-67
2021/05/28 11:17:53;;;;;;;16.73;15.20;;;;;;;27.70;55.62;99400.78;1808320;79;21068;-66
2021/05/28 11:20:33;;;;;;;14.80;13.45;;;;;;;27.76;55.68;99396.08;1843777;77;21020;-74
2021/05/28 11:23:01;;;;;;;15.68;14.38;;;;;;;27.81;56.36;99398.17;1851370;77;21074;-72
2021/05/28 11:25:32;;;;;;;15.38;13.95;;;;;;;27.84;54.88;99389.98;1845701;77;21535;-74
2021/05/28 11:28:09;;;;;;;14.95;13.68;;;;;;;27.88;54.41;99383.39;1841051;77;21562;-74
2021/05/28 11:30:43;;;;;;;15.55;14.18;;;;;;;27.91;55.42;99375.99;1847507;77;21137;-65
2021/05/28 11:33:35;;;;;;;14.95;13.53;;;;;;;27.93;55.18;99373.78;1848844;77;21581;-66
2021/05/28 11:36:29;;;;;;;16.30;14.80;;;;;;;27.99;54.89;99381.63;1840144;77;21011;-74
2021/05/28 11:39:21;;;;;;;16.40;14.93;;;;;;;28.07;53.83;99373.88;1814791;77;21008;-74
2021/05/28 11:41:57;;;;;;;16.15;14.63;;;;;;;28.13;53.83;99365.34;1781602;79;21107;-73